createdAt,value
2017-03-11T00:00:30.528Z,6.7
2017-03-11T00:01:32.451Z,6.8
2017-03-11T00:02:35.164Z,6.8
2017-03-11T00:03:37.444Z,6.8
2017-03-11T00:04:39.352Z,6.8
2017-03-11T00:05:41.224Z,6.8
2017-03-11T00:06:43.111Z,6.9
2017-03-11T00:07:45.390Z,6.9
2017-03-11T00:08:47.701Z,6.9
2017-03-11T00:09:49.550Z,7
2017-03-11T00:10:51.850Z,7
2017-03-11T00:11:54.154Z,7
2017-03-11T00:12:56.033Z,7
2017-03-11T00:13:57.906Z,7
2017-03-11T00:15:00.195Z,7.1
2017-03-11T00:16:02.065Z,7.1
2017-03-11T00:17:04.354Z,7.1
2017-03-11T00:18:06.224Z,7.2
2017-03-11T00:19:08.518Z,7.2
2017-03-11T00:20:10.406Z,7.3
2017-03-11T00:21:12.293Z,7.3
2017-03-11T00:22:14.160Z,7.3
2017-03-11T00:23:16.477Z,7.3
2017-03-11T00:24:18.792Z,7.3
2017-03-11T00:25:20.717Z,7.3
2017-03-11T00:26:22.994Z,7.3
2017-03-11T00:27:25.708Z,7.4
2017-03-11T00:28:27.980Z,7.4
2017-03-11T00:29:30.293Z,7.4
2017-03-11T00:30:32.609Z,7.5
2017-03-11T00:31:35.300Z,7.5
2017-03-11T00:32:37.162Z,7.5
2017-03-11T00:33:39.038Z,7.5
2017-03-11T00:34:41.747Z,7.5
2017-03-11T00:35:43.607Z,7.5
2017-03-11T00:36:45.937Z,7.5
2017-03-11T00:37:48.215Z,7.5
2017-03-11T00:38:50.076Z,7.6
2017-03-11T00:39:51.964Z,7.6
2017-03-11T00:40:53.828Z,7.6
2017-03-11T00:41:56.150Z,7.6
2017-03-11T00:42:58.028Z,7.6
2017-03-11T00:43:59.872Z,7.6
2017-03-11T00:45:02.210Z,7.6
2017-03-11T00:46:04.904Z,7.7
2017-03-11T00:47:06.772Z,7.7
2017-03-11T00:48:08.638Z,7.7
2017-03-11T00:49:10.534Z,7.7
2017-03-11T00:50:12.424Z,7.7
2017-03-11T00:51:14.709Z,7.8
2017-03-11T00:52:16.572Z,7.8
2017-03-11T00:53:18.448Z,7.8
2017-03-11T00:54:20.734Z,7.8
2017-03-11T00:55:22.622Z,7.8
2017-03-11T00:56:24.909Z,7.8
2017-03-11T00:57:27.614Z,7.8
2017-03-11T00:58:29.475Z,7.8
2017-03-11T00:59:31.342Z,7.8
2017-03-11T01:00:33.217Z,7.8
2017-03-11T01:01:35.520Z,7.8
2017-03-11T01:02:37.809Z,7.7
2017-03-11T01:03:39.682Z,7.7
2017-03-11T01:04:41.580Z,7.7
2017-03-11T01:05:43.432Z,7.7
2017-03-11T01:06:45.307Z,7.7
2017-03-11T01:07:47.160Z,7.7
2017-03-11T01:08:49.453Z,7.7
2017-03-11T01:09:51.737Z,7.7
2017-03-11T01:10:53.622Z,7.7
2017-03-11T01:11:55.481Z,7.7
2017-03-11T01:12:57.781Z,7.7
2017-03-11T01:13:59.630Z,7.7
2017-03-11T01:15:01.512Z,7.7
2017-03-11T01:16:03.785Z,7.7
2017-03-11T01:17:05.660Z,7.7
2017-03-11T01:18:07.538Z,7.8
2017-03-11T01:19:09.406Z,7.8
2017-03-11T01:20:11.276Z,7.8
2017-03-11T01:21:13.556Z,7.8
2017-03-11T01:22:15.414Z,7.8
2017-03-11T01:23:17.281Z,7.8
2017-03-11T01:24:19.150Z,7.8
2017-03-11T01:25:21.030Z,7.8
2017-03-11T01:26:22.909Z,7.8
2017-03-11T01:27:24.752Z,7.9
2017-03-11T01:28:26.621Z,7.9
2017-03-11T01:29:28.484Z,7.9
2017-03-11T01:30:30.378Z,7.9
2017-03-11T01:31:32.242Z,7.9
2017-03-11T01:32:34.135Z,7.9
2017-03-11T01:33:36.882Z,8
2017-03-11T01:34:38.755Z,8
2017-03-11T01:35:41.029Z,8
2017-03-11T01:36:43.355Z,8
2017-03-11T01:37:45.649Z,8
2017-03-11T01:38:47.934Z,7.9
2017-03-11T01:39:49.804Z,7.9
2017-03-11T01:40:52.076Z,7.9
2017-03-11T01:41:53.964Z,7.9
2017-03-11T01:42:55.830Z,7.9
2017-03-11T01:43:58.547Z,7.8
2017-03-11T01:45:00.432Z,7.9
2017-03-11T01:46:02.290Z,7.8
2017-03-11T01:47:04.582Z,7.8
2017-03-11T01:48:06.451Z,7.8
2017-03-11T01:49:08.299Z,7.8
2017-03-11T01:50:10.627Z,7.8
2017-03-11T01:51:12.485Z,7.8
2017-03-11T01:52:14.387Z,7.8
2017-03-11T01:53:16.663Z,7.8
2017-03-11T01:54:18.560Z,7.8
2017-03-11T01:55:20.429Z,7.8
2017-03-11T01:56:22.298Z,7.8
2017-03-11T01:57:24.166Z,7.8
2017-03-11T01:58:26.051Z,7.8
2017-03-11T01:59:27.926Z,7.8
2017-03-11T02:00:29.788Z,7.8
2017-03-11T02:01:31.660Z,7.8
2017-03-11T02:02:33.536Z,7.8
2017-03-11T02:03:35.419Z,7.8
2017-03-11T02:04:37.268Z,7.8
2017-03-11T02:05:39.164Z,7.8
2017-03-11T02:06:41.448Z,7.8
2017-03-11T02:07:43.749Z,7.8
2017-03-11T02:08:45.586Z,7.8
2017-03-11T02:09:47.472Z,7.8
2017-03-11T02:10:49.333Z,7.8
2017-03-11T02:11:51.611Z,7.8
2017-03-11T02:12:53.485Z,7.8
2017-03-11T02:13:55.345Z,7.9
2017-03-11T02:14:57.239Z,7.9
2017-03-11T02:15:59.111Z,7.9
2017-03-11T02:17:00.975Z,7.9
2017-03-11T02:18:02.852Z,7.9
2017-03-11T02:19:04.742Z,7.9
2017-03-11T02:20:06.617Z,8
2017-03-11T02:21:08.470Z,8
2017-03-11T02:22:10.775Z,8
2017-03-11T02:23:12.657Z,8
2017-03-11T02:24:14.514Z,8
2017-03-11T02:25:16.797Z,8
2017-03-11T02:26:19.085Z,8
2017-03-11T02:27:20.973Z,8
2017-03-11T02:28:23.270Z,8
2017-03-11T02:29:25.979Z,8.1
2017-03-11T02:30:28.260Z,8.1
2017-03-11T02:31:31.397Z,8.1
2017-03-11T02:32:33.683Z,8.1
2017-03-11T02:33:35.559Z,8.1
2017-03-11T02:34:37.451Z,8.1
2017-03-11T02:35:40.590Z,8.1
2017-03-11T02:36:42.460Z,8.1
2017-03-11T02:37:44.346Z,8.1
2017-03-11T02:38:46.207Z,8.2
2017-03-11T02:39:48.096Z,8.2
2017-03-11T02:40:49.962Z,8.2
2017-03-11T02:41:52.259Z,8.2
2017-03-11T02:42:54.122Z,8.2
2017-03-11T02:43:55.987Z,8.2
2017-03-11T02:44:57.868Z,8.2
2017-03-11T02:45:59.743Z,8.2
2017-03-11T02:47:02.058Z,8.2
2017-03-11T02:48:04.338Z,8.2
2017-03-11T02:49:07.059Z,8.2
2017-03-11T02:50:08.915Z,8.2
2017-03-11T02:51:10.794Z,8.1
2017-03-11T02:52:12.663Z,8.1
2017-03-11T02:53:14.948Z,8.1
2017-03-11T02:54:17.287Z,8.1
2017-03-11T02:55:19.125Z,8.1
2017-03-11T02:56:21.409Z,8.1
2017-03-11T02:57:23.282Z,8
2017-03-11T02:58:25.567Z,8
2017-03-11T02:59:27.876Z,8
2017-03-11T03:00:29.755Z,8
2017-03-11T03:01:31.632Z,8
2017-03-11T03:02:33.923Z,8
2017-03-11T03:03:35.777Z,8
2017-03-11T03:04:38.078Z,8
2017-03-11T03:05:39.945Z,8
2017-03-11T03:06:42.262Z,8
2017-03-11T03:07:44.114Z,8
2017-03-11T03:08:45.976Z,8.1
2017-03-11T03:09:47.839Z,8.1
2017-03-11T03:10:49.736Z,8.1
2017-03-11T03:11:51.598Z,8.1
2017-03-11T03:12:54.303Z,8.1
2017-03-11T03:13:57.016Z,8.1
2017-03-11T03:14:58.898Z,8.1
2017-03-11T03:16:00.771Z,8.1
2017-03-11T03:17:03.061Z,8.2
2017-03-11T03:18:04.906Z,8.2
2017-03-11T03:19:07.210Z,8.2
2017-03-11T03:20:09.103Z,8.2
2017-03-11T03:21:11.411Z,8.2
2017-03-11T03:22:13.278Z,8.2
2017-03-11T03:23:15.158Z,8.2
2017-03-11T03:24:17.033Z,8.2
2017-03-11T03:25:19.352Z,8.2
2017-03-11T03:26:21.231Z,8.2
2017-03-11T03:27:23.517Z,8.2
2017-03-11T03:28:25.410Z,8.2
2017-03-11T03:29:27.269Z,8.2
2017-03-11T03:30:29.151Z,8.2
2017-03-11T03:31:31.022Z,8.2
2017-03-11T03:32:33.318Z,8.1
2017-03-11T03:33:35.203Z,8.1
2017-03-11T03:34:37.052Z,8.1
2017-03-11T03:35:38.929Z,8.1
2017-03-11T03:36:41.226Z,8.1
2017-03-11T03:37:43.119Z,8.1
2017-03-11T03:38:44.977Z,8.1
2017-03-11T03:39:46.820Z,8
2017-03-11T03:40:49.140Z,8
2017-03-11T03:41:51.008Z,8
2017-03-11T03:42:52.877Z,8
2017-03-11T03:43:55.158Z,8
2017-03-11T03:44:57.073Z,8
2017-03-11T03:45:59.004Z,8
2017-03-11T03:47:00.895Z,8
2017-03-11T03:48:02.769Z,7.9
2017-03-11T03:49:04.631Z,8
2017-03-11T03:50:07.333Z,8
2017-03-11T03:51:09.239Z,8
2017-03-11T03:52:11.104Z,8
2017-03-11T03:53:12.993Z,8
2017-03-11T03:54:14.871Z,8
2017-03-11T03:55:16.733Z,8
2017-03-11T03:56:18.579Z,8
2017-03-11T03:57:20.450Z,8
2017-03-11T03:58:22.759Z,8.1
2017-03-11T03:59:24.643Z,8.1
2017-03-11T04:00:26.519Z,8
2017-03-11T04:01:28.364Z,8
2017-03-11T04:02:30.266Z,8.1
2017-03-11T04:03:32.144Z,8
2017-03-11T04:04:34.021Z,8
2017-03-11T04:05:35.887Z,8.1
2017-03-11T04:06:37.795Z,8.1
2017-03-11T04:07:39.684Z,8.1
2017-03-11T04:08:41.546Z,8.1
2017-03-11T04:09:43.412Z,8.1
2017-03-11T04:10:45.276Z,8.1
2017-03-11T04:11:47.149Z,8.1
2017-03-11T04:12:49.468Z,8.1
2017-03-11T04:13:51.336Z,8.1
2017-03-11T04:14:53.197Z,8.1
2017-03-11T04:15:55.067Z,8.1
2017-03-11T04:16:56.938Z,8.1
2017-03-11T04:17:59.230Z,8.1
2017-03-11T04:19:01.521Z,8.1
2017-03-11T04:20:03.394Z,8.1
2017-03-11T04:21:05.704Z,8.1
2017-03-11T04:22:07.996Z,8.1
2017-03-11T04:23:09.864Z,8.1
2017-03-11T04:24:12.572Z,8.1
2017-03-11T04:25:14.454Z,8.1
2017-03-11T04:26:16.748Z,8.1
2017-03-11T04:27:18.620Z,8.2
2017-03-11T04:28:20.475Z,8.2
2017-03-11T04:29:22.400Z,8.2
2017-03-11T04:30:24.260Z,8.2
2017-03-11T04:31:26.556Z,8.2
2017-03-11T04:32:28.850Z,8.2
2017-03-11T04:33:30.721Z,8.1
2017-03-11T04:34:32.572Z,8.1
2017-03-11T04:35:34.447Z,8.1
2017-03-11T04:36:36.308Z,8.1
2017-03-11T04:37:38.195Z,8.1
2017-03-11T04:38:40.046Z,8.1
2017-03-11T04:39:41.916Z,8.2
2017-03-11T04:40:44.615Z,8.2
2017-03-11T04:41:46.495Z,8.2
2017-03-11T04:42:48.348Z,8.2
2017-03-11T04:43:50.650Z,8.2
2017-03-11T04:44:52.936Z,8.2
2017-03-11T04:45:55.251Z,8.2
2017-03-11T04:46:57.557Z,8.2
2017-03-11T04:47:59.412Z,8.2
2017-03-11T04:49:01.303Z,8.2
2017-03-11T04:50:03.602Z,8.2
2017-03-11T04:51:05.496Z,8.2
2017-03-11T04:52:07.371Z,8.2
2017-03-11T04:53:09.673Z,8.2
2017-03-11T04:54:11.556Z,8.2
2017-03-11T04:55:13.431Z,8.2
2017-03-11T04:56:15.312Z,8.2
2017-03-11T04:57:17.606Z,8.2
2017-03-11T04:58:20.324Z,8.2
2017-03-11T04:59:22.627Z,8.2
2017-03-11T05:00:24.493Z,8.1
2017-03-11T05:01:26.790Z,8.2
2017-03-11T05:02:28.653Z,8.2
2017-03-11T05:03:30.945Z,8.1
2017-03-11T05:04:32.810Z,8.2
2017-03-11T05:05:35.164Z,8.1
2017-03-11T05:06:37.038Z,8.2
2017-03-11T05:07:38.908Z,8.2
2017-03-11T05:08:40.789Z,8.2
2017-03-11T05:09:42.658Z,8.2
2017-03-11T05:10:45.355Z,8.2
2017-03-11T05:11:48.090Z,8.3
2017-03-11T05:12:49.953Z,8.2
2017-03-11T05:13:52.240Z,8.2
2017-03-11T05:14:54.108Z,8.2
2017-03-11T05:15:56.406Z,8.2
2017-03-11T05:16:58.272Z,8.2
2017-03-11T05:18:00.548Z,8.2
2017-03-11T05:19:02.448Z,8.2
2017-03-11T05:20:04.306Z,8.2
2017-03-11T05:21:06.178Z,8.2
2017-03-11T05:22:08.072Z,8.2
2017-03-11T05:23:09.933Z,8.2
2017-03-11T05:24:11.782Z,8.2
2017-03-11T05:25:13.657Z,8.3
2017-03-11T05:26:15.962Z,8.3
2017-03-11T05:27:17.842Z,8.3
2017-03-11T05:28:19.687Z,8.3
2017-03-11T05:29:21.549Z,8.2
2017-03-11T05:30:24.256Z,8.2
2017-03-11T05:31:26.543Z,8.2
2017-03-11T05:32:28.836Z,8.2
2017-03-11T05:33:30.701Z,8.2
2017-03-11T05:34:32.567Z,8.2
2017-03-11T05:35:34.444Z,8.2
2017-03-11T05:36:36.309Z,8.2
2017-03-11T05:37:38.582Z,8.2
2017-03-11T05:38:40.869Z,8.2
2017-03-11T05:39:42.744Z,8.2
2017-03-11T05:40:44.635Z,8.2
2017-03-11T05:41:46.525Z,8.2
2017-03-11T05:42:48.392Z,8.2
2017-03-11T05:43:50.321Z,8.2
2017-03-11T05:44:52.187Z,8.2
2017-03-11T05:45:54.047Z,8.2
2017-03-11T05:46:55.934Z,8.2
2017-03-11T05:47:57.804Z,8.2
2017-03-11T05:48:59.671Z,8.2
2017-03-11T05:50:02.383Z,8.2
2017-03-11T05:51:04.716Z,8.2
2017-03-11T05:52:06.569Z,8.2
2017-03-11T05:53:08.888Z,8.2
2017-03-11T05:54:11.190Z,8.2
2017-03-11T05:55:13.496Z,8.2
2017-03-11T05:56:15.379Z,8.3
2017-03-11T05:57:17.243Z,8.2
2017-03-11T05:58:19.134Z,8.3
2017-03-11T05:59:21.468Z,8.3
2017-03-11T06:00:23.780Z,8.3
2017-03-11T06:01:25.965Z,8.3
2017-03-11T06:02:27.829Z,8.3
2017-03-11T06:03:56.627Z,8.3
2017-03-11T06:04:59.421Z,8.3
2017-03-11T06:06:01.365Z,8.3
2017-03-11T06:07:03.339Z,8.3
2017-03-11T06:08:05.215Z,8.4
2017-03-11T06:09:07.701Z,8.4
2017-03-11T06:10:09.629Z,8.4
2017-03-11T06:11:11.775Z,8.4
2017-03-11T06:12:13.662Z,8.4
2017-03-11T06:13:15.995Z,8.4
2017-03-11T06:14:17.876Z,8.4
2017-03-11T06:15:20.174Z,8.4
2017-03-11T06:16:22.053Z,8.4
2017-03-11T06:17:23.935Z,8.4
2017-03-11T06:18:25.821Z,8.5
2017-03-11T06:19:27.707Z,8.5
2017-03-11T06:20:29.562Z,8.5
2017-03-11T06:21:31.446Z,8.5
2017-03-11T06:22:33.327Z,8.5
2017-03-11T06:23:35.625Z,8.5
2017-03-11T06:24:37.514Z,8.6
2017-03-11T06:25:39.457Z,8.6
2017-03-11T06:26:41.756Z,8.6
2017-03-11T06:27:43.609Z,8.6
2017-03-11T06:28:45.546Z,8.6
2017-03-11T06:29:47.548Z,8.6
2017-03-11T06:30:49.904Z,8.6
2017-03-11T06:31:51.907Z,8.6
2017-03-11T06:32:53.800Z,8.6
2017-03-11T06:33:56.241Z,8.6
2017-03-11T06:34:58.671Z,8.6
2017-03-11T06:36:00.648Z,8.6
2017-03-11T06:37:02.550Z,8.7
2017-03-11T06:38:04.431Z,8.7
2017-03-11T06:39:06.309Z,8.7
2017-03-11T06:40:08.193Z,8.7
2017-03-11T06:41:10.502Z,8.7
2017-03-11T06:42:12.395Z,8.7
2017-03-11T06:43:14.290Z,8.8
2017-03-11T06:44:16.169Z,8.8
2017-03-11T06:45:18.037Z,8.8
2017-03-11T06:46:19.945Z,8.8
2017-03-11T06:47:21.850Z,8.8
2017-03-11T06:48:24.555Z,8.8
2017-03-11T06:49:26.436Z,8.8
2017-03-11T06:50:29.572Z,8.8
2017-03-11T06:51:31.462Z,8.8
2017-03-11T06:52:33.343Z,8.8
2017-03-11T06:53:35.207Z,8.8
2017-03-11T06:54:37.498Z,8.8
2017-03-11T06:55:39.367Z,8.8
2017-03-11T06:56:41.680Z,8.8
2017-03-11T06:57:43.982Z,8.8
2017-03-11T06:58:45.850Z,8.8
2017-03-11T06:59:48.242Z,8.8
2017-03-11T07:00:50.157Z,8.9
2017-03-11T07:01:52.153Z,8.9
2017-03-11T07:02:54.630Z,8.9
2017-03-11T07:03:57.053Z,8.8
2017-03-11T07:04:59.109Z,8.9
2017-03-11T07:06:01.599Z,8.8
2017-03-11T07:07:04.015Z,8.8
2017-03-11T07:08:06.467Z,8.8
2017-03-11T07:09:08.439Z,8.8
2017-03-11T07:10:10.448Z,8.8
2017-03-11T07:11:12.428Z,8.8
2017-03-11T07:12:14.345Z,8.8
2017-03-11T07:13:16.256Z,8.8
2017-03-11T07:14:18.143Z,8.8
2017-03-11T07:15:20.065Z,8.9
2017-03-11T07:16:22.238Z,8.9
2017-03-11T07:17:24.122Z,8.9
2017-03-11T07:18:26.155Z,8.9
2017-03-11T07:19:28.052Z,8.8
2017-03-11T07:20:30.031Z,8.9
2017-03-11T07:21:32.098Z,8.9
2017-03-11T07:22:34.409Z,8.9
2017-03-11T07:23:37.145Z,8.9
2017-03-11T07:24:39.050Z,9
2017-03-11T07:25:41.147Z,8.9
2017-03-11T07:26:43.204Z,9
2017-03-11T07:27:45.109Z,9
2017-03-11T07:28:47.090Z,9
2017-03-11T07:29:49.408Z,9
2017-03-11T07:30:51.767Z,9
2017-03-11T07:31:53.640Z,9
2017-03-11T07:32:55.987Z,9
2017-03-11T07:33:57.927Z,9
2017-03-11T07:34:59.840Z,9.1
2017-03-11T07:36:02.157Z,9.1
2017-03-11T07:37:04.259Z,9.1
2017-03-11T07:38:06.133Z,9.1
2017-03-11T07:39:08.325Z,9.1
2017-03-11T07:40:10.636Z,9.1
2017-03-11T07:41:12.675Z,9.1
2017-03-11T07:42:14.571Z,9.1
2017-03-11T07:43:16.453Z,9.1
2017-03-11T07:44:18.338Z,9.1
2017-03-11T07:45:20.219Z,9.1
2017-03-11T07:46:22.168Z,9.1
2017-03-11T07:47:24.390Z,9.1
2017-03-11T07:48:26.261Z,9.1
2017-03-11T07:49:28.175Z,9.1
2017-03-11T07:50:30.156Z,9.1
2017-03-11T07:51:32.477Z,9.1
2017-03-11T07:52:34.781Z,9.1
2017-03-11T07:53:36.669Z,9.1
2017-03-11T07:54:38.611Z,9.1
2017-03-11T07:55:40.504Z,9.1
2017-03-11T07:56:42.409Z,9.1
2017-03-11T07:57:44.310Z,9.1
2017-03-11T07:58:46.912Z,9.1
2017-03-11T07:59:49.266Z,9.1
2017-03-11T08:00:51.571Z,9.1
2017-03-11T08:01:53.931Z,9.1
2017-03-11T08:02:55.834Z,9.2
2017-03-11T08:03:58.977Z,9.2
2017-03-11T08:05:00.899Z,9.2
2017-03-11T08:06:02.799Z,9.3
2017-03-11T08:07:05.179Z,9.3
2017-03-11T08:08:07.105Z,9.3
2017-03-11T08:09:08.993Z,9.4
2017-03-11T08:10:10.948Z,9.4
2017-03-11T08:11:13.022Z,9.4
2017-03-11T08:12:14.907Z,9.4
2017-03-11T08:13:17.281Z,9.5
2017-03-11T08:14:19.140Z,9.5
2017-03-11T08:15:21.255Z,9.5
2017-03-11T08:16:23.230Z,9.5
2017-03-11T08:17:25.101Z,9.5
2017-03-11T08:18:26.955Z,9.5
2017-03-11T08:19:28.877Z,9.5
2017-03-11T08:20:31.485Z,9.5
2017-03-11T08:21:33.782Z,9.5
2017-03-11T08:22:35.698Z,9.6
2017-03-11T08:23:38.044Z,9.6
2017-03-11T08:24:40.407Z,9.6
2017-03-11T08:25:42.338Z,9.6
2017-03-11T08:26:44.702Z,9.6
2017-03-11T08:27:46.629Z,9.6
2017-03-11T08:28:49.370Z,9.6
2017-03-11T08:29:52.126Z,9.6
2017-03-11T08:30:54.034Z,9.7
2017-03-11T08:31:55.935Z,9.7
2017-03-11T08:32:58.276Z,9.7
2017-03-11T08:34:00.159Z,9.7
2017-03-11T08:35:03.025Z,9.7
2017-03-11T08:36:04.958Z,9.7
2017-03-11T08:37:06.888Z,9.7
2017-03-11T08:38:09.249Z,9.7
2017-03-11T08:39:11.983Z,9.7
2017-03-11T08:40:13.926Z,9.7
2017-03-11T08:41:15.823Z,9.7
2017-03-11T08:42:18.168Z,9.8
2017-03-11T08:43:20.196Z,9.8
2017-03-11T08:44:22.092Z,9.9
2017-03-11T08:45:23.960Z,9.9
2017-03-11T08:46:25.848Z,9.9
2017-03-11T08:47:27.972Z,10
2017-03-11T08:48:30.281Z,10
2017-03-11T08:49:32.180Z,10
2017-03-11T08:50:34.078Z,10
2017-03-11T08:51:35.948Z,10
2017-03-11T08:52:37.838Z,10
2017-03-11T08:53:39.728Z,10.1
2017-03-11T08:54:42.042Z,10.1
2017-03-11T08:55:44.342Z,10.1
2017-03-11T08:56:46.660Z,10.1
2017-03-11T08:57:49.449Z,10.1
2017-03-11T08:58:51.415Z,10.1
2017-03-11T08:59:53.274Z,10.1
2017-03-11T09:00:55.203Z,10.1
2017-03-11T09:01:57.108Z,10.1
2017-03-11T09:02:59.437Z,10.1
2017-03-11T09:04:01.337Z,10.1
2017-03-11T09:05:03.239Z,10
2017-03-11T09:06:05.144Z,10
2017-03-11T09:07:07.058Z,10
2017-03-11T09:08:08.958Z,10
2017-03-11T09:09:10.832Z,10
2017-03-11T09:10:12.718Z,10
2017-03-11T09:11:15.466Z,10
2017-03-11T09:12:17.359Z,10
2017-03-11T09:13:19.265Z,10
2017-03-11T09:14:21.163Z,10
2017-03-11T09:15:23.085Z,10
2017-03-11T09:16:25.399Z,10
2017-03-11T09:17:27.299Z,10
2017-03-11T09:18:29.643Z,10
2017-03-11T09:19:31.540Z,10
2017-03-11T09:20:33.853Z,10
2017-03-11T09:21:36.147Z,10
2017-03-11T09:22:38.038Z,10
2017-03-11T09:23:39.937Z,10.1
2017-03-11T09:24:41.810Z,10
2017-03-11T09:25:44.542Z,10.1
2017-03-11T09:26:46.424Z,10.1
2017-03-11T09:27:48.324Z,10.1
2017-03-11T09:28:50.629Z,10.1
2017-03-11T09:29:52.542Z,10.1
2017-03-11T09:30:54.866Z,10.1
2017-03-11T09:31:57.250Z,10.1
2017-03-11T09:32:59.107Z,10.2
2017-03-11T09:34:01.014Z,10.2
2017-03-11T09:35:03.325Z,10.2
2017-03-11T09:36:05.616Z,10.2
2017-03-11T09:37:07.495Z,10.3
2017-03-11T09:38:09.397Z,10.3
2017-03-11T09:39:11.735Z,10.3
2017-03-11T09:40:13.593Z,10.4
2017-03-11T09:41:15.467Z,10.4
2017-03-11T09:42:17.328Z,10.4
2017-03-11T09:43:19.177Z,10.5
2017-03-11T09:44:21.101Z,10.5
2017-03-11T09:45:23.018Z,10.5
2017-03-11T09:46:24.898Z,10.5
2017-03-11T09:47:26.780Z,10.5
2017-03-11T09:48:28.646Z,10.5
2017-03-11T09:49:31.405Z,10.5
2017-03-11T09:50:33.687Z,10.5
2017-03-11T09:51:36.007Z,10.6
2017-03-11T09:52:38.298Z,10.6
2017-03-11T09:53:40.607Z,10.7
2017-03-11T09:54:42.505Z,10.7
2017-03-11T09:55:44.813Z,10.7
2017-03-11T09:56:46.704Z,10.8
2017-03-11T09:57:49.018Z,10.8
2017-03-11T09:58:50.914Z,10.8
2017-03-11T09:59:52.785Z,10.9
2017-03-11T10:00:55.109Z,10.9
2017-03-11T10:01:57.843Z,10.9
2017-03-11T10:02:59.758Z,10.9
2017-03-11T10:04:02.105Z,11
2017-03-11T10:05:04.000Z,11
2017-03-11T10:06:06.314Z,11.1
2017-03-11T10:07:08.190Z,11.1
2017-03-11T10:08:10.036Z,11.1
2017-03-11T10:09:11.954Z,11.2
2017-03-11T10:10:13.822Z,11.2
2017-03-11T10:11:15.724Z,11.2
2017-03-11T10:12:17.633Z,11.3
2017-03-11T10:13:19.568Z,11.3
2017-03-11T10:14:21.469Z,11.3
2017-03-11T10:15:23.337Z,11.4
2017-03-11T10:16:25.225Z,11.4
2017-03-11T10:17:27.505Z,11.4
2017-03-11T10:18:29.425Z,11.4
2017-03-11T10:19:31.301Z,11.4
2017-03-11T10:20:33.603Z,11.4
2017-03-11T10:21:36.368Z,11.4
2017-03-11T10:22:38.245Z,11.4
2017-03-11T10:23:40.120Z,11.5
2017-03-11T10:24:41.988Z,11.5
2017-03-11T10:25:43.862Z,11.5
2017-03-11T10:26:45.782Z,11.6
2017-03-11T10:27:47.672Z,11.6
2017-03-11T10:28:49.570Z,11.7
2017-03-11T10:29:51.894Z,11.7
2017-03-11T10:30:53.781Z,11.8
2017-03-11T10:31:55.662Z,11.8
2017-03-11T10:32:57.978Z,11.9
2017-03-11T10:33:59.828Z,12
2017-03-11T10:35:01.733Z,12
2017-03-11T10:36:04.057Z,12.1
2017-03-11T10:37:05.951Z,12.2
2017-03-11T10:38:08.249Z,12.3
2017-03-11T10:39:10.125Z,12.3
2017-03-11T10:40:12.004Z,12.4
2017-03-11T10:41:13.882Z,12.5
2017-03-11T10:42:16.195Z,12.6
2017-03-11T10:43:18.131Z,12.7
2017-03-11T10:44:20.018Z,12.9
2017-03-11T10:45:21.927Z,12.9
2017-03-11T10:46:23.823Z,13
2017-03-11T10:47:25.739Z,13.1
2017-03-11T10:48:27.602Z,13.1
2017-03-11T10:49:29.902Z,13.1
2017-03-11T10:50:32.641Z,13.1
2017-03-11T10:51:34.506Z,13.2
2017-03-11T10:52:36.388Z,13.2
2017-03-11T10:53:38.685Z,13.2
2017-03-11T10:54:41.011Z,13.3
2017-03-11T10:55:42.877Z,13.4
2017-03-11T10:56:45.609Z,13.5
2017-03-11T10:57:47.926Z,13.6
2017-03-11T10:58:49.801Z,13.7
2017-03-11T10:59:51.677Z,13.7
2017-03-11T11:00:53.997Z,13.8
2017-03-11T11:01:56.309Z,13.9
2017-03-11T11:02:58.241Z,13.9
2017-03-11T11:04:00.109Z,14
2017-03-11T11:05:02.438Z,14
2017-03-11T11:06:04.309Z,14
2017-03-11T11:07:06.209Z,14
2017-03-11T11:08:08.495Z,14
2017-03-11T11:09:10.379Z,14
2017-03-11T11:10:13.102Z,14
2017-03-11T11:11:15.412Z,14.1
2017-03-11T11:12:17.256Z,14
2017-03-11T11:13:19.151Z,14
2017-03-11T11:14:21.453Z,14
2017-03-11T11:15:23.377Z,14
2017-03-11T11:16:25.243Z,14
2017-03-11T11:17:27.149Z,14
2017-03-11T11:18:29.039Z,14.1
2017-03-11T11:19:30.930Z,14.3
2017-03-11T11:20:32.789Z,14.5
2017-03-11T11:21:34.657Z,14.8
2017-03-11T11:22:36.541Z,15
2017-03-11T11:23:38.448Z,15.1
2017-03-11T11:24:40.337Z,15.2
2017-03-11T11:25:42.672Z,15.3
2017-03-11T11:26:44.965Z,15.3
2017-03-11T11:27:46.870Z,15.4
2017-03-11T11:28:49.196Z,15.5
2017-03-11T11:29:51.072Z,15.7
2017-03-11T11:30:53.388Z,15.9
2017-03-11T11:31:55.317Z,16.1
2017-03-11T11:32:57.171Z,16.4
2017-03-11T11:33:59.070Z,16.5
2017-03-11T11:35:00.942Z,16.6
2017-03-11T11:36:03.353Z,16.6
2017-03-11T11:37:05.240Z,16.6
2017-03-11T11:38:07.103Z,16.6
2017-03-11T11:39:09.007Z,16.5
2017-03-11T11:40:10.876Z,16.6
2017-03-11T11:41:12.773Z,16.6
2017-03-11T11:42:14.675Z,16.6
2017-03-11T11:43:16.988Z,16.6
2017-03-11T11:44:19.303Z,16.7
2017-03-11T11:45:21.182Z,16.8
2017-03-11T11:46:23.062Z,17
2017-03-11T11:47:25.366Z,17.2
2017-03-11T11:48:27.315Z,17.3
2017-03-11T11:49:29.179Z,17.4
2017-03-11T11:50:31.494Z,17.5
2017-03-11T11:51:33.382Z,17.5
2017-03-11T11:52:35.672Z,17.5
2017-03-11T11:53:37.575Z,17.4
2017-03-11T11:54:39.473Z,17.3
2017-03-11T11:55:41.357Z,17.2
2017-03-11T11:56:43.255Z,17.2
2017-03-11T11:57:45.122Z,17.1
2017-03-11T11:58:47.017Z,17.1
2017-03-11T11:59:49.299Z,17.1
2017-03-11T12:00:51.211Z,17.1
2017-03-11T12:01:53.524Z,17.1
2017-03-11T12:02:55.402Z,17.1
2017-03-11T12:03:57.279Z,17.1
2017-03-11T12:04:59.151Z,17.1
2017-03-11T12:06:01.463Z,17.1
2017-03-11T12:07:03.391Z,17.2
2017-03-11T12:08:05.715Z,17.2
2017-03-11T12:09:07.606Z,17.3
2017-03-11T12:10:09.497Z,17.4
2017-03-11T12:11:11.394Z,17.6
2017-03-11T12:12:13.263Z,17.9
2017-03-11T12:13:15.574Z,18.1
2017-03-11T12:14:17.441Z,18.3
2017-03-11T12:15:19.781Z,18.6
2017-03-11T12:16:21.667Z,18.8
2017-03-11T12:17:23.568Z,19.1
2017-03-11T12:18:25.445Z,19.3
2017-03-11T12:19:27.351Z,19.6
2017-03-11T12:20:29.238Z,19.8
2017-03-11T12:21:31.119Z,19.9
2017-03-11T12:22:32.995Z,20.1
2017-03-11T12:23:34.893Z,20.4
2017-03-11T12:24:37.659Z,20.6
2017-03-11T12:25:39.584Z,20.8
2017-03-11T12:26:41.469Z,21
2017-03-11T12:27:43.789Z,21.2
2017-03-11T12:28:45.696Z,21.3
2017-03-11T12:29:47.997Z,21.4
2017-03-11T12:30:50.328Z,21.4
2017-03-11T12:31:53.069Z,21.5
2017-03-11T12:32:55.379Z,21.5
2017-03-11T12:33:57.293Z,21.6
2017-03-11T12:34:59.137Z,21.7
2017-03-11T12:36:01.025Z,21.7
2017-03-11T12:37:02.925Z,21.7
2017-03-11T12:38:04.834Z,21.7
2017-03-11T12:39:06.728Z,21.5
2017-03-11T12:40:08.631Z,21.3
2017-03-11T12:41:10.957Z,21.2
2017-03-11T12:42:12.829Z,21.1
2017-03-11T12:43:14.779Z,21.1
2017-03-11T12:44:16.670Z,21.2
2017-03-11T12:45:18.554Z,21.2
2017-03-11T12:46:21.307Z,21.3
2017-03-11T12:47:23.181Z,21.3
2017-03-11T12:48:25.071Z,21.3
2017-03-11T12:49:26.948Z,21.4
2017-03-11T12:50:28.850Z,21.4
2017-03-11T12:51:31.591Z,21.4
2017-03-11T12:52:33.478Z,21.4
2017-03-11T12:53:35.421Z,21.4
2017-03-11T12:54:37.728Z,21.5
2017-03-11T12:55:40.076Z,21.6
2017-03-11T12:56:41.958Z,21.6
2017-03-11T12:57:43.831Z,21.7
2017-03-11T12:58:46.160Z,21.7
2017-03-11T12:59:48.478Z,21.8
2017-03-11T13:00:50.369Z,21.8
2017-03-11T13:01:53.101Z,21.8
2017-03-11T13:02:55.425Z,21.8
2017-03-11T13:03:57.326Z,21.8
2017-03-11T13:04:59.203Z,21.8
2017-03-11T13:06:01.536Z,21.7
2017-03-11T13:07:03.430Z,21.7
2017-03-11T13:08:05.321Z,21.7
2017-03-11T13:09:07.201Z,21.8
2017-03-11T13:10:09.112Z,21.8
2017-03-11T13:11:11.002Z,21.8
2017-03-11T13:12:12.881Z,21.7
2017-03-11T13:13:14.768Z,21.7
2017-03-11T13:14:16.661Z,21.6
2017-03-11T13:15:18.555Z,21.6
2017-03-11T13:16:20.456Z,21.5
2017-03-11T13:17:22.781Z,21.5
2017-03-11T13:18:24.668Z,21.4
2017-03-11T13:19:26.559Z,21.4
2017-03-11T13:20:28.922Z,21.3
2017-03-11T13:21:30.896Z,21.4
2017-03-11T13:22:32.834Z,21.5
2017-03-11T13:23:35.193Z,21.6
2017-03-11T13:24:37.213Z,21.6
2017-03-11T13:25:39.153Z,21.7
2017-03-11T13:26:41.057Z,21.7
2017-03-11T13:27:42.939Z,21.7
2017-03-11T13:28:45.244Z,21.6
2017-03-11T13:29:47.665Z,21.5
2017-03-11T13:30:49.662Z,21.4
2017-03-11T13:31:51.612Z,21.4
2017-03-11T13:32:53.635Z,21.3
2017-03-11T13:33:56.060Z,21.3
2017-03-11T13:34:57.982Z,21.3
2017-03-11T13:36:00.007Z,21.3
2017-03-11T13:37:02.310Z,21.3
2017-03-11T13:38:04.187Z,21.4
2017-03-11T13:39:06.434Z,21.3
2017-03-11T13:40:08.354Z,21.3
2017-03-11T13:41:10.267Z,21.3
2017-03-11T13:42:12.297Z,21.2
2017-03-11T13:43:14.641Z,21.2
2017-03-11T13:44:16.959Z,21.1
2017-03-11T13:45:19.069Z,21.2
2017-03-11T13:46:20.972Z,21.2
2017-03-11T13:47:22.892Z,21.2
2017-03-11T13:48:24.802Z,21.1
2017-03-11T13:49:26.710Z,21.1
2017-03-11T13:50:28.646Z,21.1
2017-03-11T13:51:30.882Z,21.1
2017-03-11T13:52:33.322Z,21.1
2017-03-11T13:53:35.636Z,21.1
2017-03-11T13:54:37.784Z,21.1
2017-03-11T13:55:39.747Z,21.1
2017-03-11T13:56:41.832Z,21.1
2017-03-11T13:57:43.960Z,21.1
2017-03-11T13:58:45.931Z,21.2
2017-03-11T13:59:48.041Z,21.2
2017-03-11T14:00:49.953Z,21.3
2017-03-11T14:01:52.823Z,21.3
2017-03-11T14:02:54.744Z,21.2
2017-03-11T14:03:56.652Z,21.2
2017-03-11T14:04:58.706Z,21.2
2017-03-11T14:06:00.700Z,21.2
2017-03-11T14:07:02.620Z,21.2
2017-03-11T14:08:04.961Z,21.2
2017-03-11T14:09:06.999Z,21.2
2017-03-11T14:10:08.891Z,21.2
2017-03-11T14:11:10.799Z,21.2